Naylor, MO (63953)

7:34 PM CDT on September 19, 2014 (GMT -0500)
RAWS DONIPHAN MO US | Change Station
CLOSE
Current Station
Personal Weather Station
Location: Doniphan, MO
Elevation: 634 ft
Nearby Weather Stations

Elev 634 ft 36.63 °N, 90.82 °W | Updated 41 minutes ago

Clear
Clear
75 °F
Feels Like 77 °F
N
1
Wind Variable Wind from South
Gusts 7.0 mph

Today
High -- | Low -- °F
--% Chance of Precip.
Yesterday
High -- | Low -- °F
Precip. -- in
6:48 AM 7:03 PM
Waning Crescent, 16% visible
Pressure 29.99 in
Visibility 10.0 miles
Clouds Few 4600 ft
Heat Index 77 °F
Dew Point 64 °F
Humidity 68%
Rainfall 0.00 in
Snow Depth Not available.
UV 0 out of 12
Pollen 7.40 out of 12
Air Quality Not available.
Flu Activity Not available.
METAR KPOF 192353Z AUTO 00000KT 10SM FEW046 23/17 A2999 RMK AO2 SLP154 T02330167 10278 20233 56002

More Conditions Fewer Conditions

Pressure 29.99 in
Visibility 10.0 miles
Clouds Few 4600 ft
Heat Index 77 °F
Dew Point 64 °F
Humidity 68%
Rainfall 0.00 in
Snow Depth Not available.
UV 0 out of 12
Pollen 7.40 out of 12
Air Quality Not available.
Flu Activity Not available.
METAR KPOF 192353Z AUTO 00000KT 10SM FEW046 23/17 A2999 RMK AO2 SLP154 T02330167 10278 20233 56002

More Conditions Fewer Conditions

10-Day Weather Forecast

Almanac

Astronomy

Sep. 19, 2014 Rise Set
Actual Time 6:48 AM CDT 7:03 PM CDT
Civil Twilight 6:22 AM CDT 7:29 PM CDT
Nautical Twilight 5:51 AM CDT 7:59 PM CDT
Astronomical Twilight 5:21 AM CDT 8:30 PM CDT
Moon 2:38 AM CDT (9/19) 4:27 PM CDT (9/19)
Length of Visible Light 13h 07m
Length of Day
12h 15m
Tomorrow will be 2m 18s shorter.
Waning Crescent, 16% of the Moon is Illuminated
Today
Waning Crescent
Sep 24
New
Oct 1
First Quarter
Oct 8
Full
Oct 15
Last Quarter

Today's Extremes

State Highs State Lows

Community

WunderPhotos

Upload Photos

1,754,744 photos uploaded!

WunderBlogs® & News

Nearby

Snow Depth

Station Depth Elevation
No new snow has been reported.

Earthquake Activity

City Distance Mag. Time & Date
No recent earthquake activity has been reported nearby.
Minimum magnitude displayed is 2.5.

Coastal Water Temperatures

Place Temperature
No Stations Reporting

Nearby Weather Stations